sensor_id;sensor_type;location;lat;lon;timestamp;P1;durP1;ratioP1;P2;durP2;ratioP2
15393;SDS011;7795;47.986;11.868;2024-03-23T00:52:58;2.57;;;2.37;;
15393;SDS011;7795;47.986;11.868;2024-03-23T00:55:24;2.53;;;2.13;;
15393;SDS011;7795;47.986;11.868;2024-03-23T00:57:50;2.60;;;2.40;;
15393;SDS011;7795;47.986;11.868;2024-03-23T01:00:16;4.10;;;2.33;;
15393;SDS011;7795;47.986;11.868;2024-03-23T01:02:42;5.60;;;2.50;;
15393;SDS011;7795;47.986;11.868;2024-03-23T01:05:08;3.33;;;2.60;;
15393;SDS011;7795;47.986;11.868;2024-03-23T01:07:34;2.87;;;2.13;;
15393;SDS011;7795;47.986;11.868;2024-03-23T01:10:01;3.37;;;2.80;;
15393;SDS011;7795;47.986;11.868;2024-03-23T01:12:27;3.87;;;2.80;;
15393;SDS011;7795;47.986;11.868;2024-03-23T01:14:53;4.20;;;2.40;;
15393;SDS011;7795;47.986;11.868;2024-03-23T01:17:19;3.10;;;2.80;;
15393;SDS011;7795;47.986;11.868;2024-03-23T01:19:45;4.73;;;2.83;;
15393;SDS011;7795;47.986;11.868;2024-03-23T01:22:11;3.23;;;2.73;;
15393;SDS011;7795;47.986;11.868;2024-03-23T01:24:36;4.03;;;3.23;;
15393;SDS011;7795;47.986;11.868;2024-03-23T01:27:04;5.53;;;2.80;;
15393;SDS011;7795;47.986;11.868;2024-03-23T01:29:30;4.20;;;2.80;;
15393;SDS011;7795;47.986;11.868;2024-03-23T01:31:56;5.03;;;3.07;;
15393;SDS011;7795;47.986;11.868;2024-03-23T01:34:22;5.73;;;3.00;;
15393;SDS011;7795;47.986;11.868;2024-03-23T01:36:49;2.40;;;2.17;;
15393;SDS011;7795;47.986;11.868;2024-03-23T01:39:15;4.03;;;3.13;;
15393;SDS011;7795;47.986;11.868;2024-03-23T01:41:41;3.13;;;2.57;;
15393;SDS011;7795;47.986;11.868;2024-03-23T01:44:09;3.17;;;2.77;;
15393;SDS011;7795;47.986;11.868;2024-03-23T01:46:36;3.47;;;2.30;;
15393;SDS011;7795;47.986;11.868;2024-03-23T01:49:02;2.83;;;2.17;;
15393;SDS011;7795;47.986;11.868;2024-03-23T01:51:29;2.30;;;2.03;;
15393;SDS011;7795;47.986;11.868;2024-03-23T01:53:56;3.50;;;2.37;;
15393;SDS011;7795;47.986;11.868;2024-03-23T01:56:22;3.77;;;2.33;;
15393;SDS011;7795;47.986;11.868;2024-03-23T01:58:48;3.20;;;2.10;;
15393;SDS011;7795;47.986;11.868;2024-03-23T02:01:16;3.10;;;2.30;;
15393;SDS011;7795;47.986;11.868;2024-03-23T02:03:43;5.03;;;2.30;;
15393;SDS011;7795;47.986;11.868;2024-03-23T02:06:09;3.43;;;2.37;;
15393;SDS011;7795;47.986;11.868;2024-03-23T02:08:35;5.73;;;2.60;;
15393;SDS011;7795;47.986;11.868;2024-03-23T02:11:01;3.27;;;2.37;;
15393;SDS011;7795;47.986;11.868;2024-03-23T02:13:27;2.43;;;2.23;;
15393;SDS011;7795;47.986;11.868;2024-03-23T02:15:53;4.07;;;2.53;;
15393;SDS011;7795;47.986;11.868;2024-03-23T02:18:20;2.53;;;2.27;;
15393;SDS011;7795;47.986;11.868;2024-03-23T02:20:46;3.30;;;2.07;;
15393;SDS011;7795;47.986;11.868;2024-03-23T02:23:17;4.20;;;2.13;;
15393;SDS011;7795;47.986;11.868;2024-03-23T02:25:43;2.47;;;1.90;;
15393;SDS011;7795;47.986;11.868;2024-03-23T02:28:09;4.73;;;2.17;;
15393;SDS011;7795;47.986;11.868;2024-03-23T02:30:36;2.13;;;1.83;;
15393;SDS011;7795;47.986;11.868;2024-03-23T02:33:02;2.37;;;1.97;;
15393;SDS011;7795;47.986;11.868;2024-03-23T02:35:28;2.50;;;1.77;;
15393;SDS011;7795;47.986;11.868;2024-03-23T02:37:54;1.70;;;1.60;;
15393;SDS011;7795;47.986;11.868;2024-03-23T02:40:22;2.33;;;1.90;;
15393;SDS011;7795;47.986;11.868;2024-03-23T02:42:48;2.63;;;2.00;;
15393;SDS011;7795;47.986;11.868;2024-03-23T02:45:14;2.33;;;1.90;;
15393;SDS011;7795;47.986;11.868;2024-03-23T02:47:40;2.10;;;1.60;;
15393;SDS011;7795;47.986;11.868;2024-03-23T02:50:06;2.10;;;1.90;;
15393;SDS011;7795;47.986;11.868;2024-03-23T02:52:34;1.93;;;1.70;;
15393;SDS011;7795;47.986;11.868;2024-03-23T02:55:00;1.87;;;1.67;;
15393;SDS011;7795;47.986;11.868;2024-03-23T02:57:28;1.83;;;1.40;;
15393;SDS011;7795;47.986;11.868;2024-03-23T02:59:54;2.53;;;1.60;;
15393;SDS011;7795;47.986;11.868;2024-03-23T03:02:20;1.93;;;1.40;;
15393;SDS011;7795;47.986;11.868;2024-03-23T03:04:46;1.93;;;1.70;;
15393;SDS011;7795;47.986;11.868;2024-03-23T03:07:13;1.80;;;1.60;;
15393;SDS011;7795;47.986;11.868;2024-03-23T03:09:39;3.27;;;1.90;;
15393;SDS011;7795;47.986;11.868;2024-03-23T03:12:05;2.77;;;2.00;;
15393;SDS011;7795;47.986;11.868;2024-03-23T03:14:33;2.40;;;2.00;;
15393;SDS011;7795;47.986;11.868;2024-03-23T03:16:59;2.70;;;2.07;;
15393;SDS011;7795;47.986;11.868;2024-03-23T03:19:25;2.27;;;1.90;;
15393;SDS011;7795;47.986;11.868;2024-03-23T03:21:50;4.17;;;2.23;;
15393;SDS011;7795;47.986;11.868;2024-03-23T03:24:16;2.17;;;1.97;;
15393;SDS011;7795;47.986;11.868;2024-03-23T03:26:42;2.50;;;2.17;;
15393;SDS011;7795;47.986;11.868;2024-03-23T03:29:08;2.40;;;1.83;;
15393;SDS011;7795;47.986;11.868;2024-03-23T03:31:35;2.60;;;1.80;;
15393;SDS011;7795;47.986;11.868;2024-03-23T03:34:01;2.07;;;1.57;;
15393;SDS011;7795;47.986;11.868;2024-03-23T03:36:27;1.80;;;1.70;;
15393;SDS011;7795;47.986;11.868;2024-03-23T03:38:53;3.63;;;1.83;;
15393;SDS011;7795;47.986;11.868;2024-03-23T03:41:19;2.10;;;1.90;;
15393;SDS011;7795;47.986;11.868;2024-03-23T03:43:45;1.70;;;1.60;;
15393;SDS011;7795;47.986;11.868;2024-03-23T03:46:10;2.63;;;1.47;;
15393;SDS011;7795;47.986;11.868;2024-03-23T03:48:38;1.60;;;1.40;;
15393;SDS011;7795;47.986;11.868;2024-03-23T03:51:04;4.50;;;2.23;;
15393;SDS011;7795;47.986;11.868;2024-03-23T03:53:29;2.10;;;2.00;;
15393;SDS011;7795;47.986;11.868;2024-03-23T03:55:56;1.60;;;1.43;;
15393;SDS011;7795;47.986;11.868;2024-03-23T03:58:22;1.70;;;1.60;;
15393;SDS011;7795;47.986;11.868;2024-03-23T04:00:47;2.10;;;1.80;;
15393;SDS011;7795;47.986;11.868;2024-03-23T04:03:13;1.63;;;1.33;;
15393;SDS011;7795;47.986;11.868;2024-03-23T04:05:40;1.93;;;1.50;;
15393;SDS011;7795;47.986;11.868;2024-03-23T04:08:07;1.50;;;1.40;;
15393;SDS011;7795;47.986;11.868;2024-03-23T04:10:33;1.67;;;1.57;;
15393;SDS011;7795;47.986;11.868;2024-03-23T04:12:58;1.67;;;1.57;;
15393;SDS011;7795;47.986;11.868;2024-03-23T04:15:24;1.70;;;1.60;;
15393;SDS011;7795;47.986;11.868;2024-03-23T04:17:50;2.30;;;1.70;;
15393;SDS011;7795;47.986;11.868;2024-03-23T04:20:16;2.10;;;1.40;;
15393;SDS011;7795;47.986;11.868;2024-03-23T04:22:43;2.13;;;1.47;;
15393;SDS011;7795;47.986;11.868;2024-03-23T04:25:09;1.93;;;1.73;;
15393;SDS011;7795;47.986;11.868;2024-03-23T04:27:35;1.80;;;1.60;;
15393;SDS011;7795;47.986;11.868;2024-03-23T04:30:02;2.33;;;1.60;;
15393;SDS011;7795;47.986;11.868;2024-03-23T04:32:29;2.83;;;1.60;;
15393;SDS011;7795;47.986;11.868;2024-03-23T04:34:56;1.70;;;1.50;;
15393;SDS011;7795;47.986;11.868;2024-03-23T04:37:22;1.83;;;1.73;;
15393;SDS011;7795;47.986;11.868;2024-03-23T04:39:49;1.50;;;1.40;;
15393;SDS011;7795;47.986;11.868;2024-03-23T04:42:15;1.40;;;1.30;;
15393;SDS011;7795;47.986;11.868;2024-03-23T04:44:41;1.47;;;1.37;;
15393;SDS011;7795;47.986;11.868;2024-03-23T04:47:07;1.50;;;1.40;;
15393;SDS011;7795;47.986;11.868;2024-03-23T04:49:33;1.30;;;1.20;;
15393;SDS011;7795;47.986;11.868;2024-03-23T04:52:01;2.70;;;1.40;;
15393;SDS011;7795;47.986;11.868;2024-03-23T04:54:28;1.67;;;1.30;;
15393;SDS011;7795;47.986;11.868;2024-03-23T04:56:55;1.47;;;1.20;;
15393;SDS011;7795;47.986;11.868;2024-03-23T04:59:21;1.37;;;1.27;;
15393;SDS011;7795;47.986;11.868;2024-03-23T05:01:47;1.63;;;1.37;;
15393;SDS011;7795;47.986;11.868;2024-03-23T05:04:13;2.10;;;1.53;;
15393;SDS011;7795;47.986;11.868;2024-03-23T05:06:39;2.00;;;1.20;;
15393;SDS011;7795;47.986;11.868;2024-03-23T05:09:04;1.80;;;1.50;;
15393;SDS011;7795;47.986;11.868;2024-03-23T05:11:36;2.87;;;1.30;;
15393;SDS011;7795;47.986;11.868;2024-03-23T05:14:04;2.30;;;1.37;;
15393;SDS011;7795;47.986;11.868;2024-03-23T05:16:30;1.93;;;1.30;;
15393;SDS011;7795;47.986;11.868;2024-03-23T05:18:55;1.97;;;1.53;;
15393;SDS011;7795;47.986;11.868;2024-03-23T05:21:21;2.50;;;1.30;;
15393;SDS011;7795;47.986;11.868;2024-03-23T05:23:47;1.60;;;1.30;;
15393;SDS011;7795;47.986;11.868;2024-03-23T05:26:13;1.40;;;1.30;;
15393;SDS011;7795;47.986;11.868;2024-03-23T05:28:39;1.33;;;1.20;;
15393;SDS011;7795;47.986;11.868;2024-03-23T05:31:06;1.83;;;1.20;;
15393;SDS011;7795;47.986;11.868;2024-03-23T05:33:34;2.77;;;1.53;;
15393;SDS011;7795;47.986;11.868;2024-03-23T05:36:00;1.53;;;1.40;;
15393;SDS011;7795;47.986;11.868;2024-03-23T05:38:26;1.30;;;1.20;;
15393;SDS011;7795;47.986;11.868;2024-03-23T05:40:53;1.50;;;1.40;;
15393;SDS011;7795;47.986;11.868;2024-03-23T05:43:19;3.07;;;1.40;;
15393;SDS011;7795;47.986;11.868;2024-03-23T05:45:45;2.07;;;1.60;;
15393;SDS011;7795;47.986;11.868;2024-03-23T05:48:12;1.30;;;1.20;;
15393;SDS011;7795;47.986;11.868;2024-03-23T05:50:38;2.03;;;1.30;;
15393;SDS011;7795;47.986;11.868;2024-03-23T05:53:04;2.33;;;1.50;;
15393;SDS011;7795;47.986;11.868;2024-03-23T05:55:30;4.17;;;2.27;;
15393;SDS011;7795;47.986;11.868;2024-03-23T05:57:57;1.40;;;1.30;;
15393;SDS011;7795;47.986;11.868;2024-03-23T06:00:23;1.93;;;1.73;;
15393;SDS011;7795;47.986;11.868;2024-03-23T06:02:51;2.60;;;1.77;;
15393;SDS011;7795;47.986;11.868;2024-03-23T06:05:18;1.37;;;1.27;;
15393;SDS011;7795;47.986;11.868;2024-03-23T06:07:44;3.40;;;1.50;;
15393;SDS011;7795;47.986;11.868;2024-03-23T06:10:10;1.60;;;1.40;;
15393;SDS011;7795;47.986;11.868;2024-03-23T06:12:36;3.20;;;1.37;;
15393;SDS011;7795;47.986;11.868;2024-03-23T06:15:02;1.97;;;1.67;;
15393;SDS011;7795;47.986;11.868;2024-03-23T06:17:28;3.43;;;1.77;;
15393;SDS011;7795;47.986;11.868;2024-03-23T06:19:54;4.57;;;2.50;;
15393;SDS011;7795;47.986;11.868;2024-03-23T06:22:21;1.80;;;1.50;;
15393;SDS011;7795;47.986;11.868;2024-03-23T06:24:47;4.13;;;2.03;;
15393;SDS011;7795;47.986;11.868;2024-03-23T06:27:13;1.83;;;1.50;;
15393;SDS011;7795;47.986;11.868;2024-03-23T06:29:39;2.63;;;1.73;;
15393;SDS011;7795;47.986;11.868;2024-03-23T06:32:05;1.97;;;1.77;;
15393;SDS011;7795;47.986;11.868;2024-03-23T06:34:31;3.37;;;1.77;;
15393;SDS011;7795;47.986;11.868;2024-03-23T06:36:57;3.43;;;1.90;;
15393;SDS011;7795;47.986;11.868;2024-03-23T06:39:24;1.87;;;1.50;;
15393;SDS011;7795;47.986;11.868;2024-03-23T06:41:53;2.30;;;1.87;;
15393;SDS011;7795;47.986;11.868;2024-03-23T06:44:19;2.20;;;1.70;;
15393;SDS011;7795;47.986;11.868;2024-03-23T06:46:45;1.83;;;1.50;;
15393;SDS011;7795;47.986;11.868;2024-03-23T06:49:12;1.80;;;1.60;;
15393;SDS011;7795;47.986;11.868;2024-03-23T06:51:38;1.70;;;1.57;;
15393;SDS011;7795;47.986;11.868;2024-03-23T06:54:04;4.07;;;1.97;;
15393;SDS011;7795;47.986;11.868;2024-03-23T06:56:32;2.63;;;1.40;;
15393;SDS011;7795;47.986;11.868;2024-03-23T06:58:57;4.27;;;1.70;;
15393;SDS011;7795;47.986;11.868;2024-03-23T07:01:24;2.57;;;1.53;;
15393;SDS011;7795;47.986;11.868;2024-03-23T07:03:50;1.43;;;1.33;;
15393;SDS011;7795;47.986;11.868;2024-03-23T07:06:15;3.83;;;1.83;;
15393;SDS011;7795;47.986;11.868;2024-03-23T07:08:41;7.17;;;1.67;;
15393;SDS011;7795;47.986;11.868;2024-03-23T07:11:07;2.43;;;1.33;;
15393;SDS011;7795;47.986;11.868;2024-03-23T07:13:34;2.70;;;1.50;;
15393;SDS011;7795;47.986;11.868;2024-03-23T07:16:00;4.80;;;1.47;;
15393;SDS011;7795;47.986;11.868;2024-03-23T07:18:26;3.70;;;2.13;;
15393;SDS011;7795;47.986;11.868;2024-03-23T07:20:52;3.03;;;1.70;;
15393;SDS011;7795;47.986;11.868;2024-03-23T07:23:18;2.73;;;1.10;;
15393;SDS011;7795;47.986;11.868;2024-03-23T07:25:44;3.33;;;1.50;;
15393;SDS011;7795;47.986;11.868;2024-03-23T07:28:10;2.07;;;1.40;;
15393;SDS011;7795;47.986;11.868;2024-03-23T07:30:37;1.53;;;1.30;;
15393;SDS011;7795;47.986;11.868;2024-03-23T07:33:03;2.33;;;1.10;;
15393;SDS011;7795;47.986;11.868;2024-03-23T07:35:29;2.40;;;1.40;;
15393;SDS011;7795;47.986;11.868;2024-03-23T07:37:55;2.63;;;1.53;;
15393;SDS011;7795;47.986;11.868;2024-03-23T07:40:21;1.83;;;1.10;;
15393;SDS011;7795;47.986;11.868;2024-03-23T07:42:47;2.83;;;1.23;;
15393;SDS011;7795;47.986;11.868;2024-03-23T07:45:13;1.70;;;1.50;;
15393;SDS011;7795;47.986;11.868;2024-03-23T07:47:40;2.23;;;1.20;;
15393;SDS011;7795;47.986;11.868;2024-03-23T07:50:06;1.27;;;1.17;;
15393;SDS011;7795;47.986;11.868;2024-03-23T07:52:33;1.47;;;1.10;;
15393;SDS011;7795;47.986;11.868;2024-03-23T07:54:58;2.27;;;1.10;;
15393;SDS011;7795;47.986;11.868;2024-03-23T07:57:24;1.93;;;1.23;;
15393;SDS011;7795;47.986;11.868;2024-03-23T07:59:50;2.60;;;1.00;;
15393;SDS011;7795;47.986;11.868;2024-03-23T08:02:17;4.10;;;1.50;;
15393;SDS011;7795;47.986;11.868;2024-03-23T08:04:44;1.60;;;1.37;;
15393;SDS011;7795;47.986;11.868;2024-03-23T08:07:10;3.77;;;1.20;;
15393;SDS011;7795;47.986;11.868;2024-03-23T08:09:36;2.40;;;1.30;;
15393;SDS011;7795;47.986;11.868;2024-03-23T08:12:02;1.17;;;1.07;;
15393;SDS011;7795;47.986;11.868;2024-03-23T08:14:28;1.20;;;1.00;;
15393;SDS011;7795;47.986;11.868;2024-03-23T08:16:54;1.37;;;1.10;;
15393;SDS011;7795;47.986;11.868;2024-03-23T08:19:20;2.33;;;1.10;;
15393;SDS011;7795;47.986;11.868;2024-03-23T08:21:47;2.00;;;1.33;;
15393;SDS011;7795;47.986;11.868;2024-03-23T08:24:14;2.10;;;1.20;;
15393;SDS011;7795;47.986;11.868;2024-03-23T08:26:40;1.60;;;1.10;;
15393;SDS011;7795;47.986;11.868;2024-03-23T08:29:06;4.83;;;1.00;;
15393;SDS011;7795;47.986;11.868;2024-03-23T08:31:32;1.00;;;0.90;;
15393;SDS011;7795;47.986;11.868;2024-03-23T08:33:58;2.10;;;0.80;;
15393;SDS011;7795;47.986;11.868;2024-03-23T08:36:23;0.87;;;0.73;;
15393;SDS011;7795;47.986;11.868;2024-03-23T08:38:51;1.60;;;0.87;;
15393;SDS011;7795;47.986;11.868;2024-03-23T08:41:18;1.43;;;0.90;;
15393;SDS011;7795;47.986;11.868;2024-03-23T08:43:44;1.60;;;0.73;;
15393;SDS011;7795;47.986;11.868;2024-03-23T13:39:25;5.50;;;1.80;;
15393;SDS011;7795;47.986;11.868;2024-03-23T13:41:54;6.40;;;1.50;;
15393;SDS011;7795;47.986;11.868;2024-03-23T13:44:20;5.63;;;1.73;;
15393;SDS011;7795;47.986;11.868;2024-03-23T13:46:47;13.80;;;2.20;;
15393;SDS011;7795;47.986;11.868;2024-03-23T13:49:18;5.03;;;1.37;;
15393;SDS011;7795;47.986;11.868;2024-03-23T13:51:54;4.57;;;1.83;;
15393;SDS011;7795;47.986;11.868;2024-03-23T13:54:21;3.30;;;1.37;;
15393;SDS011;7795;47.986;11.868;2024-03-23T13:56:49;3.23;;;1.40;;
15393;SDS011;7795;47.986;11.868;2024-03-23T13:59:15;1.50;;;1.10;;
15393;SDS011;7795;47.986;11.868;2024-03-23T14:01:41;2.53;;;2.00;;
15393;SDS011;7795;47.986;11.868;2024-03-23T14:04:07;3.47;;;1.60;;
15393;SDS011;7795;47.986;11.868;2024-03-23T14:06:33;5.80;;;3.20;;
15393;SDS011;7795;47.986;11.868;2024-03-23T14:08:58;5.77;;;2.27;;
15393;SDS011;7795;47.986;11.868;2024-03-23T14:11:24;7.27;;;5.03;;
15393;SDS011;7795;47.986;11.868;2024-03-23T14:13:53;5.50;;;3.00;;
15393;SDS011;7795;47.986;11.868;2024-03-23T14:16:18;2.30;;;1.40;;
15393;SDS011;7795;47.986;11.868;2024-03-23T14:18:45;2.57;;;1.43;;
15393;SDS011;7795;47.986;11.868;2024-03-23T14:21:11;2.00;;;1.30;;
15393;SDS011;7795;47.986;11.868;2024-03-23T14:23:37;3.60;;;1.77;;
15393;SDS011;7795;47.986;11.868;2024-03-23T14:26:03;1.50;;;1.00;;
15393;SDS011;7795;47.986;11.868;2024-03-23T14:28:29;1.83;;;1.10;;
15393;SDS011;7795;47.986;11.868;2024-03-23T14:30:56;1.53;;;1.00;;
15393;SDS011;7795;47.986;11.868;2024-03-23T14:33:22;2.03;;;1.37;;
15393;SDS011;7795;47.986;11.868;2024-03-23T14:35:52;3.93;;;1.50;;
15393;SDS011;7795;47.986;11.868;2024-03-23T14:38:18;3.47;;;2.20;;
15393;SDS011;7795;47.986;11.868;2024-03-23T14:40:44;3.33;;;2.00;;
15393;SDS011;7795;47.986;11.868;2024-03-23T14:43:10;2.20;;;1.57;;
15393;SDS011;7795;47.986;11.868;2024-03-23T14:45:36;2.13;;;1.40;;
15393;SDS011;7795;47.986;11.868;2024-03-23T14:48:04;2.37;;;1.20;;
15393;SDS011;7795;47.986;11.868;2024-03-23T14:50:30;1.43;;;1.33;;
15393;SDS011;7795;47.986;11.868;2024-03-23T14:52:56;1.47;;;1.10;;
15393;SDS011;7795;47.986;11.868;2024-03-23T14:55:21;2.60;;;1.63;;
15393;SDS011;7795;47.986;11.868;2024-03-23T14:57:48;1.70;;;1.20;;
15393;SDS011;7795;47.986;11.868;2024-03-23T15:00:16;2.77;;;2.20;;
15393;SDS011;7795;47.986;11.868;2024-03-23T15:02:43;3.67;;;2.30;;
15393;SDS011;7795;47.986;11.868;2024-03-23T15:05:12;2.60;;;1.67;;
15393;SDS011;7795;47.986;11.868;2024-03-23T15:07:37;2.37;;;1.90;;
15393;SDS011;7795;47.986;11.868;2024-03-23T15:10:05;2.73;;;1.47;;
15393;SDS011;7795;47.986;11.868;2024-03-23T15:12:33;3.50;;;1.60;;
15393;SDS011;7795;47.986;11.868;2024-03-23T15:14:59;2.57;;;1.80;;
15393;SDS011;7795;47.986;11.868;2024-03-23T15:17:25;5.03;;;1.97;;
15393;SDS011;7795;47.986;11.868;2024-03-23T15:19:51;4.93;;;1.77;;
15393;SDS011;7795;47.986;11.868;2024-03-23T15:22:20;3.93;;;1.83;;
15393;SDS011;7795;47.986;11.868;2024-03-23T15:24:47;4.33;;;2.00;;
15393;SDS011;7795;47.986;11.868;2024-03-23T15:27:12;2.90;;;1.57;;
15393;SDS011;7795;47.986;11.868;2024-03-23T15:29:38;2.67;;;1.40;;
15393;SDS011;7795;47.986;11.868;2024-03-23T15:32:04;4.33;;;1.50;;
15393;SDS011;7795;47.986;11.868;2024-03-23T15:34:31;2.73;;;1.90;;
15393;SDS011;7795;47.986;11.868;2024-03-23T15:36:56;3.37;;;1.63;;
15393;SDS011;7795;47.986;11.868;2024-03-23T15:39:24;2.37;;;1.30;;
15393;SDS011;7795;47.986;11.868;2024-03-23T15:41:49;3.27;;;1.50;;
15393;SDS011;7795;47.986;11.868;2024-03-23T15:44:15;2.63;;;1.63;;
15393;SDS011;7795;47.986;11.868;2024-03-23T15:46:41;1.90;;;1.30;;
15393;SDS011;7795;47.986;11.868;2024-03-23T15:49:07;1.97;;;1.43;;
15393;SDS011;7795;47.986;11.868;2024-03-23T15:51:33;2.73;;;1.33;;
15393;SDS011;7795;47.986;11.868;2024-03-23T15:54:01;3.07;;;1.63;;
15393;SDS011;7795;47.986;11.868;2024-03-23T15:56:29;3.17;;;1.53;;
15393;SDS011;7795;47.986;11.868;2024-03-23T15:58:55;2.97;;;1.90;;
15393;SDS011;7795;47.986;11.868;2024-03-23T16:01:26;3.37;;;1.90;;
15393;SDS011;7795;47.986;11.868;2024-03-23T16:03:51;4.77;;;2.33;;
15393;SDS011;7795;47.986;11.868;2024-03-23T16:06:17;3.07;;;1.93;;
15393;SDS011;7795;47.986;11.868;2024-03-23T16:08:43;2.73;;;2.17;;
15393;SDS011;7795;47.986;11.868;2024-03-23T16:11:09;2.80;;;1.70;;
15393;SDS011;7795;47.986;11.868;2024-03-23T16:13:36;4.43;;;2.40;;
15393;SDS011;7795;47.986;11.868;2024-03-23T16:16:03;3.70;;;2.40;;
15393;SDS011;7795;47.986;11.868;2024-03-23T16:18:33;3.53;;;2.20;;
15393;SDS011;7795;47.986;11.868;2024-03-23T16:21:00;3.03;;;2.07;;
15393;SDS011;7795;47.986;11.868;2024-03-23T16:23:30;3.73;;;1.93;;
15393;SDS011;7795;47.986;11.868;2024-03-23T16:25:57;3.50;;;2.10;;
15393;SDS011;7795;47.986;11.868;2024-03-23T16:28:24;2.07;;;1.73;;
15393;SDS011;7795;47.986;11.868;2024-03-23T16:30:58;2.60;;;2.00;;
15393;SDS011;7795;47.986;11.868;2024-03-23T16:33:24;3.87;;;2.23;;
15393;SDS011;7795;47.986;11.868;2024-03-23T16:35:55;3.90;;;1.70;;
15393;SDS011;7795;47.986;11.868;2024-03-23T16:38:21;7.77;;;6.83;;
15393;SDS011;7795;47.986;11.868;2024-03-23T16:40:52;3.23;;;2.33;;
15393;SDS011;7795;47.986;11.868;2024-03-23T16:43:19;2.40;;;1.80;;
15393;SDS011;7795;47.986;11.868;2024-03-23T16:45:50;1.67;;;1.50;;
15393;SDS011;7795;47.986;11.868;2024-03-23T16:48:21;2.60;;;1.70;;
15393;SDS011;7795;47.986;11.868;2024-03-23T16:50:47;2.07;;;1.50;;
15393;SDS011;7795;47.986;11.868;2024-03-23T16:53:14;3.07;;;1.90;;
15393;SDS011;7795;47.986;11.868;2024-03-23T16:55:40;3.53;;;1.83;;
15393;SDS011;7795;47.986;11.868;2024-03-23T16:58:05;1.80;;;1.23;;
15393;SDS011;7795;47.986;11.868;2024-03-23T17:00:31;2.70;;;1.57;;
15393;SDS011;7795;47.986;11.868;2024-03-23T17:02:58;2.57;;;1.80;;
15393;SDS011;7795;47.986;11.868;2024-03-23T17:05:25;1.83;;;1.73;;
15393;SDS011;7795;47.986;11.868;2024-03-23T17:07:51;2.40;;;2.20;;
15393;SDS011;7795;47.986;11.868;2024-03-23T17:10:18;2.37;;;2.10;;
15393;SDS011;7795;47.986;11.868;2024-03-23T17:12:44;2.40;;;1.67;;
15393;SDS011;7795;47.986;11.868;2024-03-23T17:15:11;1.93;;;1.50;;
15393;SDS011;7795;47.986;11.868;2024-03-23T17:17:37;2.40;;;1.80;;
15393;SDS011;7795;47.986;11.868;2024-03-23T17:20:04;3.53;;;1.60;;
15393;SDS011;7795;47.986;11.868;2024-03-23T17:22:32;3.87;;;3.57;;
15393;SDS011;7795;47.986;11.868;2024-03-23T17:24:58;4.67;;;4.27;;
15393;SDS011;7795;47.986;11.868;2024-03-23T17:27:24;6.00;;;3.73;;
15393;SDS011;7795;47.986;11.868;2024-03-23T17:29:50;5.27;;;3.60;;
15393;SDS011;7795;47.986;11.868;2024-03-23T17:32:16;3.47;;;2.57;;
15393;SDS011;7795;47.986;11.868;2024-03-23T17:34:42;3.00;;;2.20;;
15393;SDS011;7795;47.986;11.868;2024-03-23T17:37:08;2.57;;;2.27;;
15393;SDS011;7795;47.986;11.868;2024-03-23T17:39:35;1.60;;;1.30;;
15393;SDS011;7795;47.986;11.868;2024-03-23T17:42:01;2.40;;;1.50;;
15393;SDS011;7795;47.986;11.868;2024-03-23T17:44:27;2.30;;;1.73;;
15393;SDS011;7795;47.986;11.868;2024-03-23T17:46:53;3.33;;;2.00;;
15393;SDS011;7795;47.986;11.868;2024-03-23T17:49:19;2.67;;;1.37;;
15393;SDS011;7795;47.986;11.868;2024-03-23T17:51:45;2.27;;;1.20;;
15393;SDS011;7795;47.986;11.868;2024-03-23T17:54:11;1.50;;;1.40;;
15393;SDS011;7795;47.986;11.868;2024-03-23T17:56:39;1.53;;;1.00;;
15393;SDS011;7795;47.986;11.868;2024-03-23T17:59:05;2.90;;;1.10;;
15393;SDS011;7795;47.986;11.868;2024-03-23T18:01:31;0.90;;;0.90;;
15393;SDS011;7795;47.986;11.868;2024-03-23T18:03:57;1.30;;;0.90;;
15393;SDS011;7795;47.986;11.868;2024-03-23T18:06:23;1.37;;;1.10;;
15393;SDS011;7795;47.986;11.868;2024-03-23T18:08:49;2.93;;;1.10;;
15393;SDS011;7795;47.986;11.868;2024-03-23T18:11:14;0.83;;;0.83;;
15393;SDS011;7795;47.986;11.868;2024-03-23T18:13:42;1.40;;;1.30;;
15393;SDS011;7795;47.986;11.868;2024-03-23T18:16:08;0.90;;;0.90;;
15393;SDS011;7795;47.986;11.868;2024-03-23T18:18:34;0.97;;;0.90;;
15393;SDS011;7795;47.986;11.868;2024-03-23T18:21:00;1.83;;;1.40;;
15393;SDS011;7795;47.986;11.868;2024-03-23T18:23:26;1.37;;;1.27;;
15393;SDS011;7795;47.986;11.868;2024-03-23T18:25:52;1.40;;;1.03;;
15393;SDS011;7795;47.986;11.868;2024-03-23T18:28:18;2.00;;;1.07;;
15393;SDS011;7795;47.986;11.868;2024-03-23T18:30:45;1.23;;;1.07;;
15393;SDS011;7795;47.986;11.868;2024-03-23T18:33:20;2.20;;;1.10;;
15393;SDS011;7795;47.986;11.868;2024-03-23T18:35:48;1.13;;;1.03;;
15393;SDS011;7795;47.986;11.868;2024-03-23T18:38:14;1.23;;;1.10;;
15393;SDS011;7795;47.986;11.868;2024-03-23T18:40:43;1.57;;;1.10;;
15393;SDS011;7795;47.986;11.868;2024-03-23T18:43:09;1.47;;;1.23;;
15393;SDS011;7795;47.986;11.868;2024-03-23T18:45:35;2.00;;;1.30;;
15393;SDS011;7795;47.986;11.868;2024-03-23T18:48:03;2.50;;;1.30;;
15393;SDS011;7795;47.986;11.868;2024-03-23T18:50:29;1.83;;;1.10;;
15393;SDS011;7795;47.986;11.868;2024-03-23T18:52:55;1.40;;;1.30;;
15393;SDS011;7795;47.986;11.868;2024-03-23T18:55:21;1.30;;;1.20;;
15393;SDS011;7795;47.986;11.868;2024-03-23T18:57:47;2.20;;;1.03;;
15393;SDS011;7795;47.986;11.868;2024-03-23T19:00:13;1.20;;;1.10;;
15393;SDS011;7795;47.986;11.868;2024-03-23T19:02:39;1.30;;;1.13;;
15393;SDS011;7795;47.986;11.868;2024-03-23T19:05:07;1.57;;;0.90;;
15393;SDS011;7795;47.986;11.868;2024-03-23T19:07:33;2.00;;;1.10;;
15393;SDS011;7795;47.986;11.868;2024-03-23T19:09:58;1.87;;;0.90;;
15393;SDS011;7795;47.986;11.868;2024-03-23T19:12:24;2.30;;;1.20;;
15393;SDS011;7795;47.986;11.868;2024-03-23T19:14:51;1.70;;;1.13;;
15393;SDS011;7795;47.986;11.868;2024-03-23T19:17:17;2.13;;;1.07;;
15393;SDS011;7795;47.986;11.868;2024-03-23T19:19:43;1.70;;;1.10;;
15393;SDS011;7795;47.986;11.868;2024-03-23T19:22:10;2.13;;;1.10;;
15393;SDS011;7795;47.986;11.868;2024-03-23T19:24:36;2.23;;;1.00;;
15393;SDS011;7795;47.986;11.868;2024-03-23T19:27:02;2.67;;;1.73;;
15393;SDS011;7795;47.986;11.868;2024-03-23T19:29:28;2.00;;;1.57;;
15393;SDS011;7795;47.986;11.868;2024-03-23T19:31:53;1.83;;;1.20;;
15393;SDS011;7795;47.986;11.868;2024-03-23T19:34:19;1.27;;;1.10;;
15393;SDS011;7795;47.986;11.868;2024-03-23T19:36:45;1.20;;;1.10;;
15393;SDS011;7795;47.986;11.868;2024-03-23T19:39:13;1.80;;;1.40;;
15393;SDS011;7795;47.986;11.868;2024-03-23T19:41:39;2.33;;;1.10;;
15393;SDS011;7795;47.986;11.868;2024-03-23T19:44:07;1.37;;;0.90;;
15393;SDS011;7795;47.986;11.868;2024-03-23T19:46:33;1.40;;;0.77;;
15393;SDS011;7795;47.986;11.868;2024-03-23T19:48:59;1.10;;;1.00;;
15393;SDS011;7795;47.986;11.868;2024-03-23T19:51:25;1.20;;;1.00;;
15393;SDS011;7795;47.986;11.868;2024-03-23T19:53:51;1.00;;;0.90;;
15393;SDS011;7795;47.986;11.868;2024-03-23T19:56:18;1.37;;;1.27;;
15393;SDS011;7795;47.986;11.868;2024-03-23T19:58:44;1.33;;;1.03;;
15393;SDS011;7795;47.986;11.868;2024-03-23T20:01:13;1.87;;;1.10;;
15393;SDS011;7795;47.986;11.868;2024-03-23T20:03:40;1.40;;;1.30;;
15393;SDS011;7795;47.986;11.868;2024-03-23T20:06:05;1.57;;;1.27;;
15393;SDS011;7795;47.986;11.868;2024-03-23T20:08:34;1.10;;;1.10;;
15393;SDS011;7795;47.986;11.868;2024-03-23T20:11:00;2.93;;;1.33;;
15393;SDS011;7795;47.986;11.868;2024-03-23T20:13:27;1.60;;;1.00;;
15393;SDS011;7795;47.986;11.868;2024-03-23T20:15:54;1.83;;;0.90;;
15393;SDS011;7795;47.986;11.868;2024-03-23T20:18:21;2.07;;;0.90;;
15393;SDS011;7795;47.986;11.868;2024-03-23T20:20:47;0.83;;;0.77;;
15393;SDS011;7795;47.986;11.868;2024-03-23T20:23:16;0.90;;;0.90;;
15393;SDS011;7795;47.986;11.868;2024-03-23T20:25:49;1.20;;;1.00;;
15393;SDS011;7795;47.986;11.868;2024-03-23T20:28:15;1.10;;;1.00;;